sensor_id;sensor_type;location;lat;lon;timestamp;temperature;humidity
23405;DHT22;11875;49.356;2.718;2023-06-22T00:01:16;24.30;99.90
23405;DHT22;11875;49.356;2.718;2023-06-22T00:03:41;24.30;99.90
23405;DHT22;11875;49.356;2.718;2023-06-22T00:06:07;24.30;99.90
23405;DHT22;11875;49.356;2.718;2023-06-22T00:08:33;24.20;99.90
23405;DHT22;11875;49.356;2.718;2023-06-22T00:10:58;24.20;99.90
23405;DHT22;11875;49.356;2.718;2023-06-22T00:13:24;24.20;99.90
23405;DHT22;11875;49.356;2.718;2023-06-22T00:15:49;24.20;99.90
23405;DHT22;11875;49.356;2.718;2023-06-22T00:18:15;24.20;99.90
23405;DHT22;11875;49.356;2.718;2023-06-22T00:20:41;24.20;99.90
23405;DHT22;11875;49.356;2.718;2023-06-22T00:23:07;24.20;99.90
23405;DHT22;11875;49.356;2.718;2023-06-22T00:25:38;24.20;99.90
23405;DHT22;11875;49.356;2.718;2023-06-22T00:28:07;24.20;99.90
23405;DHT22;11875;49.356;2.718;2023-06-22T00:30:33;24.20;99.90
23405;DHT22;11875;49.356;2.718;2023-06-22T00:32:59;24.20;99.90
23405;DHT22;11875;49.356;2.718;2023-06-22T00:35:25;24.10;99.90
23405;DHT22;11875;49.356;2.718;2023-06-22T00:37:58;24.20;99.90
23405;DHT22;11875;49.356;2.718;2023-06-22T00:40:28;24.10;99.90
23405;DHT22;11875;49.356;2.718;2023-06-22T00:42:54;24.00;99.90
23405;DHT22;11875;49.356;2.718;2023-06-22T00:45:21;23.90;99.90
23405;DHT22;11875;49.356;2.718;2023-06-22T00:47:50;23.90;99.90
23405;DHT22;11875;49.356;2.718;2023-06-22T00:50:20;23.90;99.90
23405;DHT22;11875;49.356;2.718;2023-06-22T00:52:49;23.90;99.90
23405;DHT22;11875;49.356;2.718;2023-06-22T00:55:16;24.00;99.90
23405;DHT22;11875;49.356;2.718;2023-06-22T00:57:45;24.00;99.90
23405;DHT22;11875;49.356;2.718;2023-06-22T01:00:11;24.00;99.90
23405;DHT22;11875;49.356;2.718;2023-06-22T01:02:44;24.00;99.90
23405;DHT22;11875;49.356;2.718;2023-06-22T01:05:18;24.00;99.90
23405;DHT22;11875;49.356;2.718;2023-06-22T01:08:00;24.00;99.90
23405;DHT22;11875;49.356;2.718;2023-06-22T01:10:34;24.00;99.90
23405;DHT22;11875;49.356;2.718;2023-06-22T01:13:06;24.00;99.90
23405;DHT22;11875;49.356;2.718;2023-06-22T01:16:10;24.00;99.90
23405;DHT22;11875;49.356;2.718;2023-06-22T01:18:35;23.90;99.90
23405;DHT22;11875;49.356;2.718;2023-06-22T01:21:04;23.80;99.90
23405;DHT22;11875;49.356;2.718;2023-06-22T01:29:00;23.80;99.90
23405;DHT22;11875;49.356;2.718;2023-06-22T01:31:28;23.80;99.90
23405;DHT22;11875;49.356;2.718;2023-06-22T01:34:00;23.70;99.90
23405;DHT22;11875;49.356;2.718;2023-06-22T01:36:27;23.80;99.90
23405;DHT22;11875;49.356;2.718;2023-06-22T01:38:53;23.70;99.90
23405;DHT22;11875;49.356;2.718;2023-06-22T01:41:23;23.70;99.90
23405;DHT22;11875;49.356;2.718;2023-06-22T01:43:50;23.60;99.90
23405;DHT22;11875;49.356;2.718;2023-06-22T01:46:17;23.60;99.90
23405;DHT22;11875;49.356;2.718;2023-06-22T01:48:45;23.60;99.90
23405;DHT22;11875;49.356;2.718;2023-06-22T01:51:11;23.60;99.90
23405;DHT22;11875;49.356;2.718;2023-06-22T01:53:37;23.60;99.90
23405;DHT22;11875;49.356;2.718;2023-06-22T01:56:03;23.70;99.90
23405;DHT22;11875;49.356;2.718;2023-06-22T01:58:30;23.60;99.90
23405;DHT22;11875;49.356;2.718;2023-06-22T02:01:07;23.60;99.90
23405;DHT22;11875;49.356;2.718;2023-06-22T02:03:38;23.60;99.90
23405;DHT22;11875;49.356;2.718;2023-06-22T02:06:13;23.60;99.90
23405;DHT22;11875;49.356;2.718;2023-06-22T02:08:49;23.60;99.90
23405;DHT22;11875;49.356;2.718;2023-06-22T02:11:18;23.70;99.90
23405;DHT22;11875;49.356;2.718;2023-06-22T02:13:45;23.60;99.90
23405;DHT22;11875;49.356;2.718;2023-06-22T02:16:12;23.60;99.90
23405;DHT22;11875;49.356;2.718;2023-06-22T02:18:38;23.60;99.90
23405;DHT22;11875;49.356;2.718;2023-06-22T02:21:06;23.60;99.90
23405;DHT22;11875;49.356;2.718;2023-06-22T02:23:32;23.50;99.90
23405;DHT22;11875;49.356;2.718;2023-06-22T02:26:02;23.50;99.90
23405;DHT22;11875;49.356;2.718;2023-06-22T02:28:27;23.50;99.90
23405;DHT22;11875;49.356;2.718;2023-06-22T02:30:53;23.60;99.90
23405;DHT22;11875;49.356;2.718;2023-06-22T02:33:18;23.60;99.90
23405;DHT22;11875;49.356;2.718;2023-06-22T02:35:45;23.50;99.90
23405;DHT22;11875;49.356;2.718;2023-06-22T02:38:13;23.40;99.90
23405;DHT22;11875;49.356;2.718;2023-06-22T02:40:39;23.30;99.90
23405;DHT22;11875;49.356;2.718;2023-06-22T02:43:05;23.20;99.90
23405;DHT22;11875;49.356;2.718;2023-06-22T02:45:31;23.20;99.90
23405;DHT22;11875;49.356;2.718;2023-06-22T02:47:56;23.10;99.90
23405;DHT22;11875;49.356;2.718;2023-06-22T02:50:22;23.10;99.90
23405;DHT22;11875;49.356;2.718;2023-06-22T02:52:48;23.10;99.90
23405;DHT22;11875;49.356;2.718;2023-06-22T02:55:13;23.10;99.90
23405;DHT22;11875;49.356;2.718;2023-06-22T02:57:39;23.00;99.90
23405;DHT22;11875;49.356;2.718;2023-06-22T03:00:10;23.00;99.90
23405;DHT22;11875;49.356;2.718;2023-06-22T03:02:48;22.80;99.90
23405;DHT22;11875;49.356;2.718;2023-06-22T03:05:15;22.80;99.90
23405;DHT22;11875;49.356;2.718;2023-06-22T03:07:43;22.80;99.90
23405;DHT22;11875;49.356;2.718;2023-06-22T03:10:10;22.70;99.90
23405;DHT22;11875;49.356;2.718;2023-06-22T03:12:37;22.80;99.90
23405;DHT22;11875;49.356;2.718;2023-06-22T03:15:07;22.80;99.90
23405;DHT22;11875;49.356;2.718;2023-06-22T03:17:34;22.80;99.90
23405;DHT22;11875;49.356;2.718;2023-06-22T03:20:01;22.80;99.90
23405;DHT22;11875;49.356;2.718;2023-06-22T03:22:26;22.80;99.90
23405;DHT22;11875;49.356;2.718;2023-06-22T03:24:52;22.80;99.90
23405;DHT22;11875;49.356;2.718;2023-06-22T03:27:18;22.80;99.90
23405;DHT22;11875;49.356;2.718;2023-06-22T03:29:44;22.90;99.90
23405;DHT22;11875;49.356;2.718;2023-06-22T03:32:10;22.90;99.90
23405;DHT22;11875;49.356;2.718;2023-06-22T03:34:35;22.90;99.90
23405;DHT22;11875;49.356;2.718;2023-06-22T03:37:04;22.80;99.90
23405;DHT22;11875;49.356;2.718;2023-06-22T03:39:30;22.80;99.90
23405;DHT22;11875;49.356;2.718;2023-06-22T03:41:55;22.70;99.90
23405;DHT22;11875;49.356;2.718;2023-06-22T03:44:21;22.70;99.90
23405;DHT22;11875;49.356;2.718;2023-06-22T03:46:46;22.70;99.90
23405;DHT22;11875;49.356;2.718;2023-06-22T03:49:12;22.70;99.90
23405;DHT22;11875;49.356;2.718;2023-06-22T03:51:38;22.60;99.90
23405;DHT22;11875;49.356;2.718;2023-06-22T03:54:04;22.60;99.90
23405;DHT22;11875;49.356;2.718;2023-06-22T03:56:29;22.60;99.90
23405;DHT22;11875;49.356;2.718;2023-06-22T03:58:55;22.60;99.90
23405;DHT22;11875;49.356;2.718;2023-06-22T04:01:20;22.60;99.90
23405;DHT22;11875;49.356;2.718;2023-06-22T04:03:46;22.60;99.90
23405;DHT22;11875;49.356;2.718;2023-06-22T04:06:14;22.70;99.90
23405;DHT22;11875;49.356;2.718;2023-06-22T04:08:39;22.60;99.90
23405;DHT22;11875;49.356;2.718;2023-06-22T04:11:06;22.60;99.90
23405;DHT22;11875;49.356;2.718;2023-06-22T04:13:31;22.50;99.90
23405;DHT22;11875;49.356;2.718;2023-06-22T04:15:57;22.50;99.90
23405;DHT22;11875;49.356;2.718;2023-06-22T04:18:23;22.50;99.90
23405;DHT22;11875;49.356;2.718;2023-06-22T04:20:49;22.50;99.90
23405;DHT22;11875;49.356;2.718;2023-06-22T04:23:14;22.40;99.90
23405;DHT22;11875;49.356;2.718;2023-06-22T04:25:40;22.50;99.90
23405;DHT22;11875;49.356;2.718;2023-06-22T04:28:05;22.40;99.90
23405;DHT22;11875;49.356;2.718;2023-06-22T04:30:37;22.40;99.90
23405;DHT22;11875;49.356;2.718;2023-06-22T04:33:12;22.30;99.90
23405;DHT22;11875;49.356;2.718;2023-06-22T04:35:38;22.40;99.90
23405;DHT22;11875;49.356;2.718;2023-06-22T04:38:06;22.40;99.90
23405;DHT22;11875;49.356;2.718;2023-06-22T04:40:32;22.40;99.90
23405;DHT22;11875;49.356;2.718;2023-06-22T04:42:58;22.40;99.90
23405;DHT22;11875;49.356;2.718;2023-06-22T04:45:28;22.40;99.90
23405;DHT22;11875;49.356;2.718;2023-06-22T04:47:54;22.40;99.90
23405;DHT22;11875;49.356;2.718;2023-06-22T04:50:20;22.40;99.90
23405;DHT22;11875;49.356;2.718;2023-06-22T04:52:47;22.50;99.90
23405;DHT22;11875;49.356;2.718;2023-06-22T04:55:13;22.50;99.90
23405;DHT22;11875;49.356;2.718;2023-06-22T04:57:46;22.40;99.90
23405;DHT22;11875;49.356;2.718;2023-06-22T05:00:19;22.30;99.90
23405;DHT22;11875;49.356;2.718;2023-06-22T05:02:45;22.30;99.90
23405;DHT22;11875;49.356;2.718;2023-06-22T05:05:12;22.40;99.90
23405;DHT22;11875;49.356;2.718;2023-06-22T05:07:45;22.30;99.90
23405;DHT22;11875;49.356;2.718;2023-06-22T05:10:12;22.40;99.90
23405;DHT22;11875;49.356;2.718;2023-06-22T05:12:39;22.30;99.90
23405;DHT22;11875;49.356;2.718;2023-06-22T05:15:09;22.30;99.90
23405;DHT22;11875;49.356;2.718;2023-06-22T05:17:35;22.30;99.90
23405;DHT22;11875;49.356;2.718;2023-06-22T05:20:01;22.30;99.90
23405;DHT22;11875;49.356;2.718;2023-06-22T05:22:28;22.20;99.90
23405;DHT22;11875;49.356;2.718;2023-06-22T05:24:53;22.20;99.90
23405;DHT22;11875;49.356;2.718;2023-06-22T05:27:19;22.30;99.90
23405;DHT22;11875;49.356;2.718;2023-06-22T05:29:45;22.30;99.90
23405;DHT22;11875;49.356;2.718;2023-06-22T05:32:10;22.30;99.90
23405;DHT22;11875;49.356;2.718;2023-06-22T05:34:36;22.30;99.90
23405;DHT22;11875;49.356;2.718;2023-06-22T05:37:02;22.20;99.90
23405;DHT22;11875;49.356;2.718;2023-06-22T05:39:28;22.30;99.90
23405;DHT22;11875;49.356;2.718;2023-06-22T05:41:53;22.20;99.90
23405;DHT22;11875;49.356;2.718;2023-06-22T05:44:19;22.20;99.90
23405;DHT22;11875;49.356;2.718;2023-06-22T05:46:45;22.30;99.90
23405;DHT22;11875;49.356;2.718;2023-06-22T05:49:12;22.20;99.90
23405;DHT22;11875;49.356;2.718;2023-06-22T05:51:38;22.10;99.90
23405;DHT22;11875;49.356;2.718;2023-06-22T05:54:04;22.20;99.90
23405;DHT22;11875;49.356;2.718;2023-06-22T05:56:29;22.10;99.90
23405;DHT22;11875;49.356;2.718;2023-06-22T05:58:55;22.00;99.90
23405;DHT22;11875;49.356;2.718;2023-06-22T06:01:20;21.90;99.90
23405;DHT22;11875;49.356;2.718;2023-06-22T06:03:46;21.90;99.90
23405;DHT22;11875;49.356;2.718;2023-06-22T06:06:12;21.90;99.90
23405;DHT22;11875;49.356;2.718;2023-06-22T06:08:38;21.80;99.90
23405;DHT22;11875;49.356;2.718;2023-06-22T06:11:04;21.80;99.90
23405;DHT22;11875;49.356;2.718;2023-06-22T06:13:30;21.70;99.90
23405;DHT22;11875;49.356;2.718;2023-06-22T06:15:56;21.60;99.90
23405;DHT22;11875;49.356;2.718;2023-06-22T06:18:22;21.60;99.90
23405;DHT22;11875;49.356;2.718;2023-06-22T06:20:48;21.70;99.90
23405;DHT22;11875;49.356;2.718;2023-06-22T06:23:14;21.60;99.90
23405;DHT22;11875;49.356;2.718;2023-06-22T06:25:39;21.70;99.90
23405;DHT22;11875;49.356;2.718;2023-06-22T06:28:05;21.70;99.90
23405;DHT22;11875;49.356;2.718;2023-06-22T06:30:31;21.60;99.90
23405;DHT22;11875;49.356;2.718;2023-06-22T06:32:56;21.70;99.90
23405;DHT22;11875;49.356;2.718;2023-06-22T06:35:22;21.70;99.90
23405;DHT22;11875;49.356;2.718;2023-06-22T06:37:49;21.70;99.90
23405;DHT22;11875;49.356;2.718;2023-06-22T06:40:16;21.70;99.90
23405;DHT22;11875;49.356;2.718;2023-06-22T06:42:45;21.60;99.90
23405;DHT22;11875;49.356;2.718;2023-06-22T06:45:20;21.70;99.90
23405;DHT22;11875;49.356;2.718;2023-06-22T06:47:48;21.80;99.90
23405;DHT22;11875;49.356;2.718;2023-06-22T06:50:14;21.70;99.90
23405;DHT22;11875;49.356;2.718;2023-06-22T06:52:39;21.70;99.90
23405;DHT22;11875;49.356;2.718;2023-06-22T06:55:06;21.70;99.90
23405;DHT22;11875;49.356;2.718;2023-06-22T06:57:33;21.70;99.90
23405;DHT22;11875;49.356;2.718;2023-06-22T06:59:59;21.70;99.90
23405;DHT22;11875;49.356;2.718;2023-06-22T07:02:26;21.70;99.90
23405;DHT22;11875;49.356;2.718;2023-06-22T07:04:53;21.80;99.90
23405;DHT22;11875;49.356;2.718;2023-06-22T07:07:20;21.70;99.90
23405;DHT22;11875;49.356;2.718;2023-06-22T07:09:46;21.70;99.90
23405;DHT22;11875;49.356;2.718;2023-06-22T07:12:12;21.70;99.90
23405;DHT22;11875;49.356;2.718;2023-06-22T07:14:37;21.70;99.90
23405;DHT22;11875;49.356;2.718;2023-06-22T07:17:03;21.70;99.90
23405;DHT22;11875;49.356;2.718;2023-06-22T07:19:29;21.70;99.90
23405;DHT22;11875;49.356;2.718;2023-06-22T07:21:55;21.60;99.90
23405;DHT22;11875;49.356;2.718;2023-06-22T07:24:22;21.60;99.90
23405;DHT22;11875;49.356;2.718;2023-06-22T07:26:48;21.60;99.90
23405;DHT22;11875;49.356;2.718;2023-06-22T07:29:16;21.60;99.90
23405;DHT22;11875;49.356;2.718;2023-06-22T07:31:42;21.60;99.90
23405;DHT22;11875;49.356;2.718;2023-06-22T07:34:08;21.50;99.90
23405;DHT22;11875;49.356;2.718;2023-06-22T07:36:34;21.60;99.90
23405;DHT22;11875;49.356;2.718;2023-06-22T07:39:01;21.60;99.90
23405;DHT22;11875;49.356;2.718;2023-06-22T07:41:28;21.60;99.90
23405;DHT22;11875;49.356;2.718;2023-06-22T07:43:54;21.50;99.90
23405;DHT22;11875;49.356;2.718;2023-06-22T07:46:19;21.40;99.90
23405;DHT22;11875;49.356;2.718;2023-06-22T07:48:45;21.40;99.90
23405;DHT22;11875;49.356;2.718;2023-06-22T07:51:10;21.40;99.90
23405;DHT22;11875;49.356;2.718;2023-06-22T07:53:39;21.40;99.90
23405;DHT22;11875;49.356;2.718;2023-06-22T07:56:05;21.30;99.90
23405;DHT22;11875;49.356;2.718;2023-06-22T07:58:32;21.30;99.90
23405;DHT22;11875;49.356;2.718;2023-06-22T08:00:59;21.20;99.90
23405;DHT22;11875;49.356;2.718;2023-06-22T08:03:24;21.30;99.90
23405;DHT22;11875;49.356;2.718;2023-06-22T08:05:50;21.30;99.90
23405;DHT22;11875;49.356;2.718;2023-06-22T08:08:15;21.30;99.90
23405;DHT22;11875;49.356;2.718;2023-06-22T08:10:42;21.30;99.90
23405;DHT22;11875;49.356;2.718;2023-06-22T08:13:08;21.20;99.90
23405;DHT22;11875;49.356;2.718;2023-06-22T08:15:34;21.20;99.90
23405;DHT22;11875;49.356;2.718;2023-06-22T08:17:59;21.10;99.90
23405;DHT22;11875;49.356;2.718;2023-06-22T08:20:26;21.20;99.90
23405;DHT22;11875;49.356;2.718;2023-06-22T08:22:53;21.20;99.90
23405;DHT22;11875;49.356;2.718;2023-06-22T08:25:19;21.10;99.90
23405;DHT22;11875;49.356;2.718;2023-06-22T08:27:46;21.00;99.90
23405;DHT22;11875;49.356;2.718;2023-06-22T08:30:12;21.00;99.90
23405;DHT22;11875;49.356;2.718;2023-06-22T08:32:38;21.00;99.90
23405;DHT22;11875;49.356;2.718;2023-06-22T08:35:04;20.90;99.90
23405;DHT22;11875;49.356;2.718;2023-06-22T08:37:33;20.80;99.90
23405;DHT22;11875;49.356;2.718;2023-06-22T08:40:03;20.70;99.90
23405;DHT22;11875;49.356;2.718;2023-06-22T08:42:36;20.70;99.90
23405;DHT22;11875;49.356;2.718;2023-06-22T08:45:02;20.60;99.90
23405;DHT22;11875;49.356;2.718;2023-06-22T08:47:28;20.40;99.90
23405;DHT22;11875;49.356;2.718;2023-06-22T08:49:54;20.30;99.90
23405;DHT22;11875;49.356;2.718;2023-06-22T08:52:20;20.30;99.90
23405;DHT22;11875;49.356;2.718;2023-06-22T08:54:46;20.30;99.90
23405;DHT22;11875;49.356;2.718;2023-06-22T08:57:12;20.30;99.90
23405;DHT22;11875;49.356;2.718;2023-06-22T08:59:38;20.30;99.90
23405;DHT22;11875;49.356;2.718;2023-06-22T09:02:05;20.30;99.90
23405;DHT22;11875;49.356;2.718;2023-06-22T09:04:31;20.30;99.90
23405;DHT22;11875;49.356;2.718;2023-06-22T09:07:00;20.30;99.90
23405;DHT22;11875;49.356;2.718;2023-06-22T09:09:26;20.20;99.90
23405;DHT22;11875;49.356;2.718;2023-06-22T09:11:51;20.20;99.90
23405;DHT22;11875;49.356;2.718;2023-06-22T09:14:17;20.30;99.90
23405;DHT22;11875;49.356;2.718;2023-06-22T09:16:43;20.30;99.90
23405;DHT22;11875;49.356;2.718;2023-06-22T09:19:08;20.30;99.90
23405;DHT22;11875;49.356;2.718;2023-06-22T09:21:34;20.40;99.90
23405;DHT22;11875;49.356;2.718;2023-06-22T09:23:59;20.40;99.90
23405;DHT22;11875;49.356;2.718;2023-06-22T09:26:25;20.30;99.90
23405;DHT22;11875;49.356;2.718;2023-06-22T09:28:51;20.40;99.90
23405;DHT22;11875;49.356;2.718;2023-06-22T09:31:16;20.40;99.90
23405;DHT22;11875;49.356;2.718;2023-06-22T09:33:42;20.40;99.90
23405;DHT22;11875;49.356;2.718;2023-06-22T09:36:08;20.40;99.90
23405;DHT22;11875;49.356;2.718;2023-06-22T09:38:37;20.50;99.90
23405;DHT22;11875;49.356;2.718;2023-06-22T09:41:03;20.50;99.90
23405;DHT22;11875;49.356;2.718;2023-06-22T09:43:31;20.50;99.90
23405;DHT22;11875;49.356;2.718;2023-06-22T09:45:56;20.50;99.90
23405;DHT22;11875;49.356;2.718;2023-06-22T09:48:22;20.50;99.90
23405;DHT22;11875;49.356;2.718;2023-06-22T09:50:47;20.60;99.90
23405;DHT22;11875;49.356;2.718;2023-06-22T09:53:13;20.60;99.90
23405;DHT22;11875;49.356;2.718;2023-06-22T09:55:38;20.70;99.90
23405;DHT22;11875;49.356;2.718;2023-06-22T09:58:04;20.70;99.90
23405;DHT22;11875;49.356;2.718;2023-06-22T10:00:30;20.70;99.90
23405;DHT22;11875;49.356;2.718;2023-06-22T10:02:55;20.80;99.90
23405;DHT22;11875;49.356;2.718;2023-06-22T10:05:21;20.70;99.90
23405;DHT22;11875;49.356;2.718;2023-06-22T10:07:47;20.80;99.90
23405;DHT22;11875;49.356;2.718;2023-06-22T10:10:13;20.80;99.90
23405;DHT22;11875;49.356;2.718;2023-06-22T10:12:47;20.90;99.90
23405;DHT22;11875;49.356;2.718;2023-06-22T10:15:14;21.10;99.90
23405;DHT22;11875;49.356;2.718;2023-06-22T10:17:40;21.10;99.90
23405;DHT22;11875;49.356;2.718;2023-06-22T10:20:06;21.20;99.90
23405;DHT22;11875;49.356;2.718;2023-06-22T10:22:41;21.30;99.90
23405;DHT22;11875;49.356;2.718;2023-06-22T10:25:07;21.30;99.90
23405;DHT22;11875;49.356;2.718;2023-06-22T10:27:33;21.40;99.90
23405;DHT22;11875;49.356;2.718;2023-06-22T10:29:59;21.60;99.90
23405;DHT22;11875;49.356;2.718;2023-06-22T10:32:24;21.60;99.90
23405;DHT22;11875;49.356;2.718;2023-06-22T10:34:50;21.80;99.90
23405;DHT22;11875;49.356;2.718;2023-06-22T10:37:16;21.90;99.90
23405;DHT22;11875;49.356;2.718;2023-06-22T10:39:41;21.90;99.90
23405;DHT22;11875;49.356;2.718;2023-06-22T10:42:07;22.00;99.90
23405;DHT22;11875;49.356;2.718;2023-06-22T10:44:33;21.90;99.90
23405;DHT22;11875;49.356;2.718;2023-06-22T10:46:58;21.90;99.90
23405;DHT22;11875;49.356;2.718;2023-06-22T10:49:24;22.00;99.90
23405;DHT22;11875;49.356;2.718;2023-06-22T10:51:49;22.00;99.90
23405;DHT22;11875;49.356;2.718;2023-06-22T10:54:15;22.00;99.90
23405;DHT22;11875;49.356;2.718;2023-06-22T10:56:43;22.00;99.90
23405;DHT22;11875;49.356;2.718;2023-06-22T10:59:09;22.00;99.90
23405;DHT22;11875;49.356;2.718;2023-06-22T11:01:34;22.00;99.90
23405;DHT22;11875;49.356;2.718;2023-06-22T11:04:00;22.00;99.90
23405;DHT22;11875;49.356;2.718;2023-06-22T11:06:25;21.90;99.90
23405;DHT22;11875;49.356;2.718;2023-06-22T11:08:51;21.70;99.90
23405;DHT22;11875;49.356;2.718;2023-06-22T11:11:16;21.70;99.90
23405;DHT22;11875;49.356;2.718;2023-06-22T11:13:45;21.80;99.90
23405;DHT22;11875;49.356;2.718;2023-06-22T11:16:10;21.90;99.90
23405;DHT22;11875;49.356;2.718;2023-06-22T11:18:36;21.90;99.90
23405;DHT22;11875;49.356;2.718;2023-06-22T11:21:02;21.90;99.90
23405;DHT22;11875;49.356;2.718;2023-06-22T11:23:27;22.00;99.90
23405;DHT22;11875;49.356;2.718;2023-06-22T11:25:54;22.10;99.90
23405;DHT22;11875;49.356;2.718;2023-06-22T11:28:20;22.30;99.90
23405;DHT22;11875;49.356;2.718;2023-06-22T11:30:45;22.40;99.90
23405;DHT22;11875;49.356;2.718;2023-06-22T11:33:11;22.50;99.90
23405;DHT22;11875;49.356;2.718;2023-06-22T11:35:37;22.50;99.90
23405;DHT22;11875;49.356;2.718;2023-06-22T11:38:03;22.60;99.90
23405;DHT22;11875;49.356;2.718;2023-06-22T11:40:29;22.80;99.90
23405;DHT22;11875;49.356;2.718;2023-06-22T11:42:55;22.90;99.90
23405;DHT22;11875;49.356;2.718;2023-06-22T11:45:20;23.10;99.90
23405;DHT22;11875;49.356;2.718;2023-06-22T11:47:47;23.20;99.90
23405;DHT22;11875;49.356;2.718;2023-06-22T11:50:12;23.30;99.90
23405;DHT22;11875;49.356;2.718;2023-06-22T11:52:38;23.40;99.90
23405;DHT22;11875;49.356;2.718;2023-06-22T11:55:04;23.40;99.90
23405;DHT22;11875;49.356;2.718;2023-06-22T11:57:33;23.50;99.90
23405;DHT22;11875;49.356;2.718;2023-06-22T11:59:59;23.40;99.90
23405;DHT22;11875;49.356;2.718;2023-06-22T12:02:25;23.30;99.90
23405;DHT22;11875;49.356;2.718;2023-06-22T12:04:50;23.30;99.90
23405;DHT22;11875;49.356;2.718;2023-06-22T12:07:18;23.40;99.90
23405;DHT22;11875;49.356;2.718;2023-06-22T12:09:43;23.50;99.90
23405;DHT22;11875;49.356;2.718;2023-06-22T12:12:09;23.60;99.90
23405;DHT22;11875;49.356;2.718;2023-06-22T12:14:35;23.70;99.90
23405;DHT22;11875;49.356;2.718;2023-06-22T12:17:01;23.80;99.90
23405;DHT22;11875;49.356;2.718;2023-06-22T12:19:26;23.90;99.90
23405;DHT22;11875;49.356;2.718;2023-06-22T12:21:52;23.90;99.90
23405;DHT22;11875;49.356;2.718;2023-06-22T12:24:18;24.10;99.90
23405;DHT22;11875;49.356;2.718;2023-06-22T12:26:43;24.20;99.90
23405;DHT22;11875;49.356;2.718;2023-06-22T12:29:09;24.30;99.90
23405;DHT22;11875;49.356;2.718;2023-06-22T12:31:35;24.40;99.90
23405;DHT22;11875;49.356;2.718;2023-06-22T12:34:02;24.50;99.90
23405;DHT22;11875;49.356;2.718;2023-06-22T12:36:27;24.60;99.90
23405;DHT22;11875;49.356;2.718;2023-06-22T12:38:53;24.70;99.90
23405;DHT22;11875;49.356;2.718;2023-06-22T12:41:19;25.00;99.90
23405;DHT22;11875;49.356;2.718;2023-06-22T12:43:46;25.10;99.90
23405;DHT22;11875;49.356;2.718;2023-06-22T12:46:11;25.20;99.90
23405;DHT22;11875;49.356;2.718;2023-06-22T12:48:37;25.20;99.90
23405;DHT22;11875;49.356;2.718;2023-06-22T12:51:07;25.10;99.90
23405;DHT22;11875;49.356;2.718;2023-06-22T12:53:33;25.20;99.90
23405;DHT22;11875;49.356;2.718;2023-06-22T12:55:59;25.20;99.90
23405;DHT22;11875;49.356;2.718;2023-06-22T12:58:25;25.10;99.90
23405;DHT22;11875;49.356;2.718;2023-06-22T13:00:50;25.20;99.90
23405;DHT22;11875;49.356;2.718;2023-06-22T13:03:16;25.20;99.90
23405;DHT22;11875;49.356;2.718;2023-06-22T13:05:41;25.10;99.90
23405;DHT22;11875;49.356;2.718;2023-06-22T13:08:07;25.00;99.90
23405;DHT22;11875;49.356;2.718;2023-06-22T13:10:33;25.00;99.90
23405;DHT22;11875;49.356;2.718;2023-06-22T13:12:59;24.90;99.90
23405;DHT22;11875;49.356;2.718;2023-06-22T13:15:27;24.80;99.90
23405;DHT22;11875;49.356;2.718;2023-06-22T13:17:54;24.80;99.90
23405;DHT22;11875;49.356;2.718;2023-06-22T13:20:19;24.70;99.90
23405;DHT22;11875;49.356;2.718;2023-06-22T13:22:45;24.70;99.90
23405;DHT22;11875;49.356;2.718;2023-06-22T13:25:11;24.70;99.90
23405;DHT22;11875;49.356;2.718;2023-06-22T13:27:41;24.60;99.90
23405;DHT22;11875;49.356;2.718;2023-06-22T13:30:08;24.60;99.90
23405;DHT22;11875;49.356;2.718;2023-06-22T13:32:33;24.60;99.90
23405;DHT22;11875;49.356;2.718;2023-06-22T13:34:59;24.60;99.90
23405;DHT22;11875;49.356;2.718;2023-06-22T13:37:25;24.50;99.90
23405;DHT22;11875;49.356;2.718;2023-06-22T13:39:51;24.50;99.90
23405;DHT22;11875;49.356;2.718;2023-06-22T13:42:17;24.50;99.90
23405;DHT22;11875;49.356;2.718;2023-06-22T13:44:44;24.60;99.90
23405;DHT22;11875;49.356;2.718;2023-06-22T13:47:09;24.60;99.90
23405;DHT22;11875;49.356;2.718;2023-06-22T13:49:35;24.50;99.90
23405;DHT22;11875;49.356;2.718;2023-06-22T13:52:01;24.40;99.90
23405;DHT22;11875;49.356;2.718;2023-06-22T13:54:28;24.30;99.90
23405;DHT22;11875;49.356;2.718;2023-06-22T13:56:54;24.40;99.90
23405;DHT22;11875;49.356;2.718;2023-06-22T13:59:19;24.40;99.90
23405;DHT22;11875;49.356;2.718;2023-06-22T14:01:46;24.40;99.90
23405;DHT22;11875;49.356;2.718;2023-06-22T14:04:12;24.50;99.90
23405;DHT22;11875;49.356;2.718;2023-06-22T14:06:38;24.50;99.90
23405;DHT22;11875;49.356;2.718;2023-06-22T14:09:03;24.60;99.90
23405;DHT22;11875;49.356;2.718;2023-06-22T14:11:29;24.70;99.90
23405;DHT22;11875;49.356;2.718;2023-06-22T14:13:54;24.80;99.90
23405;DHT22;11875;49.356;2.718;2023-06-22T14:16:20;24.80;99.90
23405;DHT22;11875;49.356;2.718;2023-06-22T14:18:45;24.90;99.90
23405;DHT22;11875;49.356;2.718;2023-06-22T14:21:11;24.80;99.90
23405;DHT22;11875;49.356;2.718;2023-06-22T14:23:37;24.80;99.90
23405;DHT22;11875;49.356;2.718;2023-06-22T14:26:03;24.90;99.90
23405;DHT22;11875;49.356;2.718;2023-06-22T14:28:28;24.90;99.90
23405;DHT22;11875;49.356;2.718;2023-06-22T14:30:54;25.00;99.90
23405;DHT22;11875;49.356;2.718;2023-06-22T14:33:20;25.10;99.90
23405;DHT22;11875;49.356;2.718;2023-06-22T14:35:45;25.10;99.90
23405;DHT22;11875;49.356;2.718;2023-06-22T14:38:11;25.10;99.90
23405;DHT22;11875;49.356;2.718;2023-06-22T14:40:36;25.10;99.90
23405;DHT22;11875;49.356;2.718;2023-06-22T14:43:02;25.10;99.90
23405;DHT22;11875;49.356;2.718;2023-06-22T14:45:27;25.10;99.90
23405;DHT22;11875;49.356;2.718;2023-06-22T14:47:53;25.00;99.90
23405;DHT22;11875;49.356;2.718;2023-06-22T14:50:19;25.00;99.90
23405;DHT22;11875;49.356;2.718;2023-06-22T14:52:45;25.00;99.90
23405;DHT22;11875;49.356;2.718;2023-06-22T14:55:11;25.00;99.90
23405;DHT22;11875;49.356;2.718;2023-06-22T14:57:36;25.00;99.90
23405;DHT22;11875;49.356;2.718;2023-06-22T15:00:03;25.10;99.90
23405;DHT22;11875;49.356;2.718;2023-06-22T15:02:28;25.10;99.90
23405;DHT22;11875;49.356;2.718;2023-06-22T15:04:54;25.20;99.90
23405;DHT22;11875;49.356;2.718;2023-06-22T15:07:20;25.20;99.90
23405;DHT22;11875;49.356;2.718;2023-06-22T15:09:46;25.30;99.90
23405;DHT22;11875;49.356;2.718;2023-06-22T15:12:11;25.30;99.90
23405;DHT22;11875;49.356;2.718;2023-06-22T15:14:43;25.30;99.90
23405;DHT22;11875;49.356;2.718;2023-06-22T15:17:09;25.20;99.90
23405;DHT22;11875;49.356;2.718;2023-06-22T15:19:38;25.20;99.90
23405;DHT22;11875;49.356;2.718;2023-06-22T15:22:07;25.20;99.90
23405;DHT22;11875;49.356;2.718;2023-06-22T15:24:33;25.20;99.90
23405;DHT22;11875;49.356;2.718;2023-06-22T15:26:59;25.30;99.90
23405;DHT22;11875;49.356;2.718;2023-06-22T15:29:25;25.40;99.90
23405;DHT22;11875;49.356;2.718;2023-06-22T15:31:52;25.30;99.90